Flight Track Log - Related Links

Times and Time Zones

All times are in EDT time to prevent confusion due to time zone crossing. See the SWA116 flight status page for this flight to view local times or setup timezone preferences in your user account.

Time Position Orientation Groundspeed Altitude Reporting Facility
EDT Latitude Longitude Course Direction KTS MPH feet Rate Location/Type
Thu 12:48:15 PM 37.3436 -121.9070 339° North  Level FlightAware Approximate
Thu 12:49:21 PM 37.4333 -121.9500 107° East 244 281 4,800  Level Northern Cal TRACON
Thu 12:50:21 PM 37.4167 -121.8833 142° Southeast 232 267 5,000 1,500 Climbing Northern Cal TRACON
Thu 12:51:21 PM 37.3667 -121.8333 138° Southeast 241 277 7,800 3,047 Climbing Northern Cal TRACON
Thu 12:53:32 PM 37.2289 -121.6753 137° Southeast 306 352 14,700 3,173 Climbing Oakland Center
Thu 12:54:32 PM 37.1522 -121.5858 140° Southeast 343 395 17,900 3,000 Climbing Oakland Center
Thu 12:55:32 PM 37.0753 -121.5044 139° Southeast 376 433 20,700 3,000 Climbing Oakland Center
Thu 12:56:32 PM 36.9839 -121.4050 141° Southeast 415 478 23,900 3,000 Climbing Oakland Center
Thu 12:57:32 PM 36.8864 -121.3058 137° Southeast 441 507 26,700 2,600 Climbing Oakland Center
Thu 12:58:32 PM 36.7947 -121.1992 139° Southeast 452 520 29,100 2,300 Climbing Oakland Center
Thu 12:59:32 PM 36.6947 -121.0900 140° Southeast 462 532 31,300 2,300 Climbing Oakland Center
Thu 01:00:32 PM 36.5906 -120.9814 138° Southeast 478 550 33,700 2,500 Climbing Oakland Center
Thu 01:01:32 PM 36.4903 -120.8703 139° Southeast 483 556 36,300 1,900 Climbing Oakland Center
Thu 01:02:32 PM 36.3900 -120.7619 140° Southeast 483 556 37,500 1,300 Climbing Oakland Center
Thu 01:03:32 PM 36.2856 -120.6514 140° Southeast 483 556 38,900 750 Climbing Oakland Center
Thu 01:04:32 PM 36.1831 -120.5464 138° Southeast 478 550 39,000 50 Climbing Oakland Center
Thu 01:05:32 PM 36.0886 -120.4417 140° Southeast 471 542 39,000  Level Oakland Center
Thu 01:06:30 PM 35.9928 -120.3411 139° Southeast 483 556 39,000  Level Los Angeles Center
Thu 01:07:30 PM 35.8961 -120.2386 139° Southeast 488 562 39,000  Level Los Angeles Center
Thu 01:08:30 PM 35.7994 -120.1364 139° Southeast 473 544 39,000  Level Los Angeles Center
Thu 01:09:30 PM 35.7025 -120.0344 142° Southeast 462 532 39,000  Level Los Angeles Center
Thu 01:10:30 PM 35.6014 -119.9375 145° Southeast 462 532 39,000  Level Los Angeles Center
Thu 01:11:30 PM 35.4958 -119.8458 145° Southeast 462 532 39,000  Level Los Angeles Center
Thu 01:12:30 PM 35.3817 -119.7489 144° Southeast 462 532 39,000  Level Los Angeles Center
Thu 01:13:30 PM 35.2761 -119.6553 146° Southeast 462 532 39,000 -800 Level Los Angeles Center
Thu 01:14:30 PM 35.1700 -119.5669 145° Southeast 462 532 37,400 -2,200 Descending Los Angeles Center
Thu 01:15:30 PM 35.0619 -119.4761 145° Southeast 462 532 34,600 -3,100 Descending Los Angeles Center
Thu 01:16:30 PM 34.9539 -119.3831 146° Southeast 468 539 31,200 -3,200 Descending Los Angeles Center
Thu 01:17:30 PM 34.8436 -119.2925 145° Southeast 478 550 28,200 -2,850 Descending Los Angeles Center
Thu 01:18:30 PM 34.7353 -119.2000 146° Southeast 478 550 25,500 -2,350 Descending Los Angeles Center
Thu 01:19:30 PM 34.6494 -119.1286 147° Southeast 478 550 23,500 -2,450 Descending Los Angeles Center
Thu 01:20:30 PM 34.5347 -119.0386 145° Southeast 465 535 20,600 -2,700 Descending Los Angeles Center
Thu 01:21:30 PM 34.4367 -118.9547 149° Southeast 449 517 18,100 -2,500 Descending Los Angeles Center
Thu 01:22:30 PM 34.3278 -118.8756 167° South 436 502 15,600 -2,350 Descending Los Angeles Center
Thu 01:23:30 PM 34.2242 -118.8469 190° South 392 451 13,400 -1,500 Descending Los Angeles Center
Thu 01:24:30 PM 34.1319 -118.8667 170° South 346 398 12,600 -650 Descending Los Angeles Center
Thu 01:25:30 PM 34.0531 -118.8492 104° East 326 375 12,100 -650 Descending Los Angeles Center
Thu 01:26:30 PM 34.0342 -118.7583 95° East 239 275 11,300 -950 Descending Los Angeles Center
Thu 01:27:30 PM 34.0278 -118.6653 98° East 239 275 10,200 -900 Descending Los Angeles Center
Thu 01:28:30 PM 34.0189 -118.5872 94° East 244 281 9,500 -850 Descending Los Angeles Center
Thu 01:29:30 PM 34.0142 -118.5044 90° East 249 287 8,500 -1,050 Descending Los Angeles Center
Thu 01:30:30 PM 34.0139 -118.4192 87° East 249 287 7,400 -1,009 Descending Los Angeles Center
Thu 01:31:17 PM 34.0167 -118.3500 90° East 231 266 6,700 -1,234 Descending Southern California TRACON
Thu 01:32:17 PM 34.0167 -118.2833 76° East 215 247 5,200 -1,500 Descending Southern California TRACON
Thu 01:33:17 PM 34.0333 -118.2000 73° East 215 247 3,700 -1,300 Descending Southern California TRACON
Thu 01:34:17 PM 34.0500 -118.1333 165° South 213 245 2,600 -550 Descending Southern California TRACON
Thu 01:35:17 PM 34.0000 -118.1167 248° West 212 244 2,600  Level Southern California TRACON
Thu 01:36:17 PM 33.9833 -118.1667 253° West 187 215 2,600  Level Southern California TRACON
Thu 01:37:18 PM 33.9667 -118.2333 270° West 183 211 2,600 -347 Level Southern California TRACON
Thu 01:38:18 PM 33.9667 -118.3000 248° West 182 209 1,900 -750 Descending Southern California TRACON
Thu 01:39:18 PM 33.9500 -118.3500 270° West 146 168 1,100 -750 Descending Southern California TRACON
Thu 01:40:18 PM 33.9500 -118.3833 270° West 125 144 400 -700 Descending Southern California TRACON

Login

Don't have an account? Register now (free) for customized features, flight alerts, and more!